Terminal Aerodrome Forecast
Issued by NWS North Platte, NE

Home | Current Version | Previous Version | Text Only | Print | Product List | Glossary On
Versions: 1 2 3 4 5 6 7 8 9 10 11 12 13 14 15 16 17 18 19
000
FTUS43 KLBF 300606 AAA
TAFLBF
TAF AMD
KLBF 300606Z 3006/0106 02017G25KT P6SM OVC070
     FM301000 36015G22KT P6SM -RA OVC040
     FM301500 36024G35KT 5SM -RASN BR OVC025
      TEMPO 3015/3019 3SM -SN BR OVC018
     FM302200 35020G30KT P6SM -RA OVC035
     FM010100 34015G23KT P6SM OVC070=

USA.gov is the U.S. government's official web portal to all federal, state and local government web resources and services.